Terminal Aerodrome Forecast
Issued by NWS Quad Cities IA IL

Home | Current Version | Previous Version | Text Only | Print | Product List | Glossary On
Versions: 1 2 3 4 5 6 7 8 9 10 11 12 13 14 15 16 17 18 19 20
000
FTUS43 KDVN 201700
TAFDBQ
TAF
KDBQ 201720Z 2018/2118 24010KT P6SM VCSH BKN250
     FM202100 22008KT P6SM FEW050 BKN120
     FM210100 17004KT P6SM SCT120 BKN150
     FM210600 17005KT 6SM -RA BR VCTS BKN050CB OVC120
     FM211500 20008KT P6SM VCSH SCT050 BKN120=

USA.gov is the U.S. government's official web portal to all federal, state and local government web resources and services.